Time;durP1;ratioP1;P1;durP2;ratioP2;P2;SDS_P1;SDS_P2;PMS_P1;PMS_P2;Temp;Humidity;BMP_temperature;BMP_pressure;BME280_temperature;BME280_humidity;BME280_pressure;Samples;Min_cycle;Max_cycle;Signal;HPM_P1;HPM_P2
2023/01/28 00:01:49;;;;;;;2.80;2.10;;;;;;;1.71;100.00;103072.09;4918280;29;20429;-82
2023/01/28 00:04:17;;;;;;;2.10;2.00;;;;;;;1.70;100.00;103070.25;4900303;28;20055;-79
2023/01/28 00:06:44;;;;;;;2.00;1.90;;;;;;;1.71;100.00;103067.78;4946124;28;20057;-80
2023/01/28 00:09:12;;;;;;;2.95;1.85;;;;;;;1.72;100.00;103073.88;4922452;28;20055;-81
2023/01/28 00:11:41;;;;;;;2.88;1.80;;;;;;;1.73;100.00;103057.50;4953565;28;20055;-81
2023/01/28 00:14:11;;;;;;;1.98;1.80;;;;;;;1.73;100.00;103057.50;4927232;28;20421;-81
2023/01/28 00:16:38;;;;;;;2.05;1.95;;;;;;;1.75;100.00;103061.13;4964189;28;20046;-81
2023/01/28 00:19:06;;;;;;;2.78;1.92;;;;;;;1.77;100.00;103059.53;4964900;28;20039;-80
2023/01/28 00:21:33;;;;;;;2.50;1.70;;;;;;;1.78;100.00;103053.56;4939564;28;20058;-79
2023/01/28 00:24:02;;;;;;;2.92;2.42;;;;;;;1.79;100.00;103047.56;4916945;28;20051;-81
2023/01/28 00:26:29;;;;;;;2.70;2.45;;;;;;;1.80;100.00;103043.28;4930010;28;20049;-81
2023/01/28 00:28:59;;;;;;;3.25;2.42;;;;;;;1.77;100.00;103046.53;4916693;28;20562;-82
2023/01/28 00:31:27;;;;;;;2.20;2.10;;;;;;;1.79;100.00;103042.34;4972016;28;20043;-82
2023/01/28 00:33:55;;;;;;;2.53;2.33;;;;;;;1.79;100.00;103041.47;4941591;29;20056;-81
2023/01/28 00:36:25;;;;;;;2.55;2.35;;;;;;;1.80;100.00;103033.78;4939219;28;20056;-81
2023/01/28 00:38:57;;;;;;;2.50;2.30;;;;;;;1.80;100.00;103044.19;4956905;28;20066;-82
2023/01/28 00:41:27;;;;;;;2.30;2.13;;;;;;;1.81;100.00;103038.16;4924739;28;20055;-81
2023/01/28 00:43:58;;;;;;;2.25;2.05;;;;;;;1.81;100.00;103037.28;4956947;28;20050;-82
2023/01/28 00:46:26;;;;;;;2.60;2.40;;;;;;;1.79;100.00;103031.97;4952296;28;20502;-82
2023/01/28 00:48:54;;;;;;;2.47;2.30;;;;;;;1.80;100.00;103033.78;4937345;29;20051;-81
2023/01/28 00:51:22;;;;;;;2.35;1.80;;;;;;;1.79;100.00;103044.94;4922391;28;20047;-82
2023/01/28 00:53:49;;;;;;;2.80;1.83;;;;;;;1.78;100.00;103040.56;4959954;28;20058;-82
2023/01/28 00:56:18;;;;;;;2.30;2.10;;;;;;;1.76;100.00;103042.16;4909690;29;20224;-82
2023/01/28 00:58:46;;;;;;;2.30;2.10;;;;;;;1.76;100.00;103047.34;4950560;28;20047;-81
2023/01/28 01:01:32;;;;;;;2.72;2.15;;;;;;;1.72;100.00;103042.69;4958499;28;20045;-82
2023/01/28 01:04:02;;;;;;;2.80;2.60;;;;;;;1.73;100.00;103041.91;4952425;28;20051;-82
2023/01/28 01:06:36;;;;;;;6.05;3.67;;;;;;;1.72;100.00;103048.81;4933540;28;20047;-82
2023/01/28 01:09:10;;;;;;;5.30;3.88;;;;;;;1.72;100.00;103045.28;4939068;29;20567;-82
2023/01/28 01:11:40;;;;;;;3.63;3.33;;;;;;;1.69;100.00;103045.97;4932633;28;20046;-81
2023/01/28 01:14:09;;;;;;;3.47;3.17;;;;;;;1.66;100.00;103053.53;4958399;28;20066;-81
2023/01/28 01:16:40;;;;;;;4.80;3.17;;;;;;;1.68;100.00;103053.66;4970216;28;20035;-81
2023/01/28 01:19:08;;;;;;;4.60;3.95;;;;;;;1.69;100.00;103051.16;4955582;29;20058;-81
2023/01/28 01:21:36;;;;;;;2.97;2.78;;;;;;;1.69;100.00;103055.47;4940828;29;20047;-81
2023/01/28 01:24:03;;;;;;;3.30;3.10;;;;;;;1.68;100.00;103053.66;4949653;28;20703;-81
2023/01/28 01:26:32;;;;;;;3.75;3.45;;;;;;;1.70;100.00;103052.06;4976554;28;20047;-81
2023/01/28 01:28:59;;;;;;;7.88;5.57;;;;;;;1.71;100.00;103053.88;4882819;28;20051;-81
2023/01/28 01:31:27;;;;;;;13.00;8.98;;;;;;;1.71;100.00;103051.28;4958939;28;20046;-81
2023/01/28 01:33:54;;;;;;;22.08;14.52;;;;;;;1.70;100.00;103059.88;4941589;29;20056;-81
2023/01/28 01:36:23;;;;;;;19.33;11.93;;;;;;;1.68;100.00;103058.84;4952035;28;20050;-81
2023/01/28 01:38:54;;;;;;;10.95;6.47;;;;;;;1.67;100.00;103057.94;4957154;28;20058;-81
2023/01/28 01:41:28;;;;;;;1.77;1.67;;;;;;;1.67;100.00;103052.75;4957813;28;20055;-80
2023/01/28 01:44:01;;;;;;;2.33;1.80;;;;;;;1.68;100.00;103053.66;4920577;28;20051;-81
2023/01/28 01:46:32;;;;;;;3.33;2.00;;;;;;;1.71;100.00;103059.09;4947753;28;20031;-81
2023/01/28 01:49:15;;;;;;;2.10;2.00;;;;;;;1.70;100.00;103045.19;4938578;29;20035;-81
2023/01/28 01:51:45;;;;;;;4.65;2.50;;;;;;;1.70;100.00;103053.00;4946093;29;20425;-80
2023/01/28 01:54:13;;;;;;;3.83;2.78;;;;;;;1.69;100.00;103047.69;4936697;28;20051;-81
2023/01/28 01:56:46;;;;;;;3.40;3.10;;;;;;;1.68;100.00;103046.78;4938940;29;20040;-81
2023/01/28 01:59:22;;;;;;;5.25;3.10;;;;;;;1.69;100.00;103060.66;4911692;29;20051;-82
2023/01/28 02:01:51;;;;;;;4.55;3.28;;;;;;;1.67;100.00;103057.06;4936562;28;20059;-81
2023/01/28 02:04:25;;;;;;;7.13;2.92;;;;;;;1.68;100.00;103054.56;4933089;29;20050;-80
2023/01/28 02:06:52;;;;;;;3.35;2.78;;;;;;;1.70;100.00;103059.88;4946563;29;20058;-82
2023/01/28 02:09:28;;;;;;;3.67;3.17;;;;;;;1.72;100.00;103066.06;4923898;29;20055;-82
2023/01/28 02:12:01;;;;;;;5.00;3.10;;;;;;;1.71;100.00;103059.97;4940367;29;20047;-82
2023/01/28 02:14:31;;;;;;;3.50;3.20;;;;;;;1.71;100.00;103059.09;4912273;29;20059;-82
2023/01/28 02:17:00;;;;;;;4.75;3.58;;;;;;;1.72;100.00;103059.22;4943575;28;20059;-81
2023/01/28 02:20:02;;;;;;;3.78;3.38;;;;;;;1.72;100.00;103054.00;4925193;29;20055;-81
2023/01/28 02:22:48;;;;;;;5.32;3.38;;;;;;;1.71;100.00;103051.28;4931089;29;20063;-82
2023/01/28 02:25:31;;;;;;;5.10;3.35;;;;;;;1.69;100.00;103051.16;4916006;29;20048;-82
2023/01/28 02:28:16;;;;;;;5.97;4.10;;;;;;;1.70;100.00;103055.59;4888983;29;20059;-80
2023/01/28 02:30:54;;;;;;;4.45;3.90;;;;;;;1.70;100.00;103054.66;4953780;29;20066;-82
2023/01/28 02:33:42;;;;;;;4.05;3.75;;;;;;;1.69;100.00;103050.28;4921449;29;20052;-82
2023/01/28 02:36:32;;;;;;;5.22;4.07;;;;;;;1.66;100.00;103043.13;4912583;29;20051;-82
2023/01/28 02:39:06;;;;;;;3.70;3.40;;;;;;;1.65;100.00;103046.53;4927187;29;22887;-82
2023/01/28 02:41:41;;;;;;;4.03;3.70;;;;;;;1.65;100.00;103033.53;4933007;29;20055;-82
2023/01/28 02:44:08;;;;;;;4.15;3.85;;;;;;;1.62;100.00;103037.59;4907032;29;20859;-81
2023/01/28 02:49:30;;;;;;;5.82;4.22;;;;;;;1.56;100.00;103048.44;4943481;28;20413;-82
2023/01/28 02:52:17;;;;;;;6.68;4.40;;;;;;;1.57;100.00;103039.88;4944891;29;20489;-82
2023/01/28 02:55:04;;;;;;;6.18;4.30;;;;;;;1.56;100.00;103038.94;4944867;28;20051;-81
2023/01/28 02:58:28;;;;;;;4.47;4.00;;;;;;;1.54;100.00;103037.94;4949679;29;20509;-81
2023/01/28 03:01:04;;;;;;;5.00;4.15;;;;;;;1.55;100.00;103047.56;4875224;29;20048;-82
2023/01/28 03:03:55;;;;;;;6.18;4.22;;;;;;;1.56;100.00;103046.75;4946266;29;20091;-82
2023/01/28 03:06:27;;;;;;;6.10;4.80;;;;;;;1.58;100.00;103038.16;4924466;29;20051;-82
2023/01/28 03:37:31;;;;;;;6.88;4.72;;;;;;;1.43;100.00;103036.22;4935269;28;20051;-82
2023/01/28 03:40:10;;;;;;;;;;;;;;;1.40;100.00;103049.00;4943830;29;20059;-80
2023/01/28 03:42:38;;;;;;;5.85;5.25;;;;;;;1.38;100.00;103047.97;4941915;28;19922;-80
2023/01/28 03:45:27;;;;;;;6.47;4.85;;;;;;;1.33;100.00;103049.31;4926982;29;20051;-82
2023/01/28 03:47:59;;;;;;;5.32;4.72;;;;;;;1.31;100.00;103049.19;4893476;29;20054;-82
2023/01/28 03:50:27;;;;;;;6.13;4.93;;;;;;;1.33;100.00;103051.91;4950485;29;20069;-83
2023/01/28 03:53:10;;;;;;;7.97;4.90;;;;;;;1.32;100.00;103052.69;4957526;28;20063;-81
2023/01/28 03:55:50;;;;;;;5.80;4.90;;;;;;;1.33;100.00;103062.31;4952356;28;20062;-81
2023/01/28 03:58:19;;;;;;;5.90;5.25;;;;;;;1.29;100.00;103058.56;4953927;28;20058;-81
2023/01/28 04:00:47;;;;;;;6.43;4.80;;;;;;;1.28;100.00;103055.84;4937664;28;20051;-81
2023/01/28 04:03:17;;;;;;;8.73;5.25;;;;;;;1.30;100.00;103064.66;4960882;28;20045;-81
2023/01/28 04:06:10;;;;;;;4.68;4.28;;;;;;;1.29;100.00;103053.38;4955813;28;20062;-81
2023/01/28 04:08:52;;;;;;;6.40;4.07;;;;;;;1.29;100.00;103062.88;4927602;29;20051;-81
2023/01/28 04:11:38;;;;;;;5.57;4.95;;;;;;;1.32;100.00;103058.81;4973417;28;20053;-80
2023/01/28 04:14:07;;;;;;;5.10;4.60;;;;;;;1.33;100.00;103052.81;4950047;28;20058;-81
2023/01/28 04:16:44;;;;;;;5.55;4.90;;;;;;;1.35;100.00;103051.22;4906622;29;20059;-79
2023/01/28 04:19:12;;;;;;;5.45;5.00;;;;;;;1.36;100.00;103044.31;4957099;28;20047;-80
2023/01/28 04:21:40;;;;;;;5.40;5.00;;;;;;;1.37;100.00;103038.34;4925953;29;20055;-82
2023/01/28 04:24:09;;;;;;;5.43;4.85;;;;;;;1.40;100.00;103035.06;4944882;28;20429;-81
2023/01/28 04:26:36;;;;;;;4.90;4.45;;;;;;;1.40;100.00;103033.41;4954585;28;20057;-82
2023/01/28 04:29:05;;;;;;;4.80;3.95;;;;;;;1.42;100.00;103033.50;4942165;28;20453;-82
2023/01/28 04:31:34;;;;;;;6.88;4.28;;;;;;;1.41;100.00;103030.00;4962785;28;20070;-82
2023/01/28 04:34:16;;;;;;;5.88;4.20;;;;;;;1.41;100.00;103027.41;4923535;29;20047;-81
2023/01/28 04:36:51;;;;;;;4.93;4.43;;;;;;;1.39;100.00;103028.97;4953380;28;20058;-81
2023/01/28 04:39:48;;;;;;;4.88;4.47;;;;;;;1.39;100.00;103026.38;4930099;28;20064;-82
2023/01/28 04:42:20;;;;;;;5.05;4.55;;;;;;;1.40;100.00;103028.22;4964660;28;20046;-81
2023/01/28 04:45:01;;;;;;;5.45;4.95;;;;;;;1.38;100.00;103029.78;4956197;28;20456;-80
2023/01/28 04:47:48;;;;;;;5.15;4.40;;;;;;;1.33;100.00;103024.22;4938522;28;20051;-81
2023/01/28 04:50:31;;;;;;;5.10;4.60;;;;;;;1.32;100.00;103029.31;4956754;29;20051;-81
2023/01/28 04:53:09;;;;;;;5.93;4.80;;;;;;;1.30;100.00;103025.69;4953363;28;20054;-80
2023/01/28 04:55:58;;;;;;;5.15;4.70;;;;;;;1.30;100.00;103020.50;4947818;28;20043;-79
2023/01/28 04:58:30;;;;;;;8.05;4.68;;;;;;;1.31;100.00;103022.31;4953379;28;20050;-81
2023/01/28 05:01:04;;;;;;;4.82;4.13;;;;;;;1.31;100.00;103014.53;4950088;28;20047;-81
2023/01/28 05:03:32;;;;;;;4.93;4.50;;;;;;;1.31;100.00;103015.41;4925908;28;20058;-81
2023/01/28 05:06:03;;;;;;;5.47;4.93;;;;;;;1.33;100.00;103015.53;4937059;29;20055;-81
2023/01/28 05:08:53;;;;;;;5.47;4.97;;;;;;;1.34;100.00;103009.53;4938632;28;20038;-80
2023/01/28 05:11:23;;;;;;;5.40;4.90;;;;;;;1.34;100.00;103018.25;4947418;28;20393;-81
2023/01/28 05:13:56;;;;;;;5.18;4.70;;;;;;;1.33;100.00;103018.13;4919926;29;20058;-81
2023/01/28 05:16:30;;;;;;;5.05;4.55;;;;;;;1.32;100.00;103012.06;4930763;29;20052;-81
2023/01/28 05:18:58;;;;;;;8.70;5.75;;;;;;;1.30;100.00;103018.78;4923402;28;24770;-81
2023/01/28 05:21:32;;;;;;;7.03;5.40;;;;;;;1.26;100.00;103016.75;4941408;29;20040;-80
2023/01/28 05:24:03;;;;;;;8.88;5.35;;;;;;;1.20;100.00;103008.50;4943443;28;20050;-81
2023/01/28 05:26:32;;;;;;;5.20;4.70;;;;;;;1.18;100.00;103010.09;4937471;28;20053;-81
2023/01/28 05:29:00;;;;;;;6.25;5.53;;;;;;;1.14;100.00;103006.34;4943000;28;20870;-81
2023/01/28 05:31:28;;;;;;;6.80;5.53;;;;;;;1.11;100.00;103003.50;4937376;28;20055;-80
2023/01/28 05:33:56;;;;;;;6.65;5.07;;;;;;;1.11;100.00;103003.50;4949023;29;20052;-81
2023/01/28 05:36:24;;;;;;;5.38;4.85;;;;;;;1.10;100.00;103006.91;4910313;28;20051;-81
2023/01/28 05:38:53;;;;;;;5.43;4.93;;;;;;;1.10;100.00;103006.00;4950385;28;20589;-80
2023/01/28 05:41:20;;;;;;;5.55;4.97;;;;;;;1.11;100.00;103007.81;4939792;28;20054;-81
2023/01/28 05:43:54;;;;;;;7.13;5.25;;;;;;;1.11;100.00;103007.81;4949428;28;20051;-80
2023/01/28 05:46:44;;;;;;;5.75;5.18;;;;;;;1.10;100.00;103014.69;4938751;28;20519;-80
2023/01/28 05:49:30;;;;;;;5.75;5.22;;;;;;;1.12;100.00;103013.13;4950811;28;20412;-81
2023/01/28 05:52:16;;;;;;;5.43;4.93;;;;;;;1.13;100.00;103012.31;4944339;28;20086;-81
2023/01/28 05:54:44;;;;;;;5.80;5.30;;;;;;;1.15;100.00;103017.63;4948246;28;20070;-81
2023/01/28 05:57:12;;;;;;;7.32;5.30;;;;;;;1.15;100.00;103010.78;4950317;28;20496;-81
2023/01/28 05:59:39;;;;;;;6.88;5.00;;;;;;;1.16;100.00;103003.88;4959037;28;20031;-80
2023/01/28 06:02:07;;;;;;;8.25;5.22;;;;;;;1.15;100.00;103015.97;4930573;28;20047;-81
2023/01/28 06:04:35;;;;;;;5.68;5.10;;;;;;;1.16;100.00;103006.47;4932053;28;20055;-81
2023/01/28 06:07:02;;;;;;;7.75;5.18;;;;;;;1.15;100.00;103010.78;4920112;28;20047;-81
2023/01/28 06:09:30;;;;;;;6.25;4.72;;;;;;;1.16;100.00;103028.16;4944226;28;20043;-81
2023/01/28 06:11:58;;;;;;;5.22;4.72;;;;;;;1.15;100.00;103018.56;4927213;29;20035;-81
2023/01/28 06:14:27;;;;;;;5.43;4.90;;;;;;;1.15;100.00;103022.81;4930598;28;20046;-81
2023/01/28 06:17:14;;;;;;;5.28;4.75;;;;;;;1.13;100.00;103027.91;4953187;28;20043;-80
2023/01/28 06:19:58;;;;;;;5.78;5.35;;;;;;;1.10;100.00;103027.69;4949529;28;20055;-81
2023/01/28 06:22:26;;;;;;;6.15;4.88;;;;;;;1.10;100.00;103021.59;4929961;28;20062;-81
2023/01/28 06:24:54;;;;;;;5.60;4.75;;;;;;;1.09;100.00;103027.56;4947957;28;20051;-80
2023/01/28 06:27:21;;;;;;;5.43;4.93;;;;;;;1.10;100.00;103029.38;4945610;28;20536;-81
2023/01/28 06:29:49;;;;;;;6.97;5.03;;;;;;;1.10;100.00;103035.47;4919065;28;20059;-80
2023/01/28 06:32:16;;;;;;;7.90;5.95;;;;;;;1.10;100.00;103025.09;4953032;28;20867;-81
2023/01/28 06:34:43;;;;;;;5.75;5.25;;;;;;;1.07;100.00;103018.75;4967943;28;20054;-80
2023/01/28 06:37:15;;;;;;;5.68;5.18;;;;;;;1.02;100.00;103025.28;4908395;28;21164;-80
2023/01/28 06:39:42;;;;;;;7.10;6.13;;;;;;;0.97;100.00;103022.34;4951199;29;20051;-80
2023/01/28 06:42:10;;;;;;;6.60;5.82;;;;;;;0.94;100.00;103024.69;4923696;28;20046;-80
2023/01/28 06:44:39;;;;;;;7.05;6.00;;;;;;;0.93;100.00;103020.28;4920903;28;20113;-81
2023/01/28 06:47:08;;;;;;;6.65;5.70;;;;;;;0.91;100.00;103016.69;4931347;28;20066;-77
2023/01/28 06:49:38;;;;;;;10.38;6.53;;;;;;;0.90;100.00;103035.63;4944394;29;20051;-77
2023/01/28 06:52:06;;;;;;;6.00;5.38;;;;;;;0.90;100.00;103040.81;4911846;28;20741;-78
2023/01/28 06:54:35;;;;;;;6.72;5.43;;;;;;;0.86;100.00;103043.97;4937279;29;20047;-77
2023/01/28 06:57:02;;;;;;;6.57;5.97;;;;;;;0.80;100.00;103035.72;4951970;28;23996;-77
2023/01/28 06:59:29;;;;;;;12.57;5.30;;;;;;;0.76;100.00;103050.13;4949521;29;20043;-77
2023/01/28 07:01:58;;;;;;;8.35;5.10;;;;;;;0.70;100.00;103050.56;4951070;28;20054;-77
2023/01/28 07:04:26;;;;;;;6.93;5.35;;;;;;;0.64;100.00;103047.44;4942396;28;20041;-78
2023/01/28 07:06:53;;;;;;;5.22;4.72;;;;;;;0.59;100.00;103048.81;4935526;28;20055;-77
2023/01/28 07:09:20;;;;;;;5.45;4.95;;;;;;;0.54;100.00;103048.41;4932759;28;20034;-77
2023/01/28 07:11:48;;;;;;;7.00;5.60;;;;;;;0.49;100.00;103051.44;4950487;28;20035;-77
2023/01/28 07:14:15;;;;;;;6.15;5.57;;;;;;;0.44;100.00;103051.09;4915475;28;20799;-77
2023/01/28 07:16:44;;;;;;;6.47;5.88;;;;;;;0.37;100.00;103052.25;4934508;28;20062;-77
2023/01/28 07:19:12;;;;;;;5.78;5.22;;;;;;;0.31;100.00;103056.97;4952070;28;21220;-78
2023/01/28 07:21:40;;;;;;;8.38;5.82;;;;;;;0.27;100.00;103049.72;4957896;28;20046;-77
2023/01/28 07:24:07;;;;;;;6.00;5.35;;;;;;;0.24;100.00;103038.22;4913404;28;20063;-77
2023/01/28 07:26:36;;;;;;;5.32;4.80;;;;;;;0.20;100.00;103044.81;4933013;28;20074;-77
2023/01/28 07:29:03;;;;;;;6.15;5.47;;;;;;;0.16;100.00;103045.38;4905478;28;20054;-78
2023/01/28 07:31:30;;;;;;;9.82;6.15;;;;;;;0.12;100.00;103044.22;4936928;28;20058;-77
2023/01/28 07:33:58;;;;;;;5.80;5.20;;;;;;;0.08;100.00;103038.66;4950159;28;20700;-77
2023/01/28 07:36:25;;;;;;;6.03;5.47;;;;;;;0.05;100.00;103053.97;4965322;28;20496;-78
2023/01/28 07:38:52;;;;;;;6.00;5.40;;;;;;;0.01;100.00;103047.63;4939104;28;20834;-78
2023/01/28 07:41:20;;;;;;;6.57;5.90;;;;;;;-0.02;100.00;103056.06;4966846;28;20039;-77
2023/01/28 07:43:47;;;;;;;6.22;5.68;;;;;;;-0.04;100.00;103055.03;4931368;28;20047;-77
2023/01/28 07:46:16;;;;;;;6.82;6.22;;;;;;;-0.07;100.00;103048.69;4949374;28;20054;-77
2023/01/28 07:48:44;;;;;;;6.82;5.57;;;;;;;-0.09;100.00;103053.75;4951512;28;20050;-77
2023/01/28 07:51:12;;;;;;;6.90;5.70;;;;;;;-0.11;100.00;103064.78;4953412;28;20151;-77
2023/01/28 07:53:40;;;;;;;7.35;6.20;;;;;;;-0.14;100.00;103080.06;4917331;28;20220;-77
2023/01/28 07:56:07;;;;;;;8.30;6.60;;;;;;;-0.16;100.00;103079.03;4931622;28;20047;-77
2023/01/28 07:58:35;;;;;;;6.55;5.72;;;;;;;-0.18;100.00;103067.66;4954724;28;20055;-77
2023/01/28 08:01:03;;;;;;;9.18;6.97;;;;;;;-0.20;100.00;103068.41;4959951;28;20058;-77
2023/01/28 08:03:30;;;;;;;9.68;6.68;;;;;;;-0.20;100.00;103072.69;4953473;28;20060;-78
2023/01/28 08:05:58;;;;;;;7.40;6.65;;;;;;;-0.19;100.00;103077.09;4945582;28;20240;-78
2023/01/28 08:08:26;;;;;;;7.07;6.38;;;;;;;-0.20;100.00;103085.66;4960167;28;20090;-78
2023/01/28 08:10:54;;;;;;;6.97;6.30;;;;;;;-0.20;100.00;103109.88;4924105;28;20384;-78
2023/01/28 08:13:21;;;;;;;9.05;7.05;;;;;;;-0.19;100.00;103103.00;4935198;28;20058;-77
2023/01/28 08:15:53;;;;;;;7.70;6.70;;;;;;;-0.15;100.00;103110.28;4935795;28;20051;-77
2023/01/28 08:18:21;;;;;;;8.93;7.05;;;;;;;-0.11;100.00;103101.06;4936003;28;20057;-77
2023/01/28 08:20:48;;;;;;;9.40;8.13;;;;;;;-0.04;100.00;103116.31;4923346;28;20404;-78
2023/01/28 08:23:18;;;;;;;12.57;8.73;;;;;;;0.04;100.00;103123.06;4951306;28;20055;-77
2023/01/28 08:25:46;;;;;;;8.95;8.05;;;;;;;0.13;100.00;103122.91;4930138;28;20988;-78
2023/01/28 08:28:15;;;;;;;10.13;7.88;;;;;;;0.22;100.00;103122.75;4960690;28;20043;-79
2023/01/28 08:30:43;;;;;;;9.45;6.90;;;;;;;0.29;100.00;103120.78;4941815;28;20051;-79
2023/01/28 08:33:14;;;;;;;10.63;8.02;;;;;;;0.36;100.00;103111.81;4938746;28;20039;-79
2023/01/28 08:35:42;;;;;;;8.65;7.30;;;;;;;0.44;100.00;103125.41;4931942;28;20047;-80
2023/01/28 08:38:11;;;;;;;9.07;7.13;;;;;;;0.48;100.00;103115.41;4941149;28;20062;-77
2023/01/28 08:40:39;;;;;;;9.13;7.45;;;;;;;0.54;100.00;103123.66;4948814;28;20047;-77
2023/01/28 08:43:07;;;;;;;10.80;7.72;;;;;;;0.56;100.00;103139.34;4926624;28;20047;-77
2023/01/28 08:45:38;;;;;;;7.60;6.88;;;;;;;0.54;100.00;103123.66;4954134;28;20047;-78
2023/01/28 08:48:09;;;;;;;;;;;;;;;0.54;100.00;103133.16;4940536;28;20050;-77
2023/01/28 08:50:38;;;;;;;8.52;7.25;;;;;;;0.52;100.00;103137.31;4963970;28;19929;-78
2023/01/28 08:53:10;;;;;;;8.45;7.60;;;;;;;0.51;100.00;103138.06;4957765;28;20050;-78
2023/01/28 08:55:38;;;;;;;10.07;7.50;;;;;;;0.53;100.00;103139.09;4942092;28;20068;-78
2023/01/28 08:58:09;;;;;;;8.95;7.70;;;;;;;0.57;100.00;103144.69;4938840;29;20058;-78
2023/01/28 09:00:38;;;;;;;8.30;7.53;;;;;;;0.62;100.00;103120.78;4960368;28;20051;-78
2023/01/28 09:03:06;;;;;;;8.55;7.50;;;;;;;0.67;100.00;103122.97;4907336;28;20059;-78
2023/01/28 09:05:34;;;;;;;8.35;6.88;;;;;;;0.72;100.00;103124.25;4953277;28;20048;-78
2023/01/28 09:08:04;;;;;;;9.50;7.07;;;;;;;0.78;100.00;103124.72;4942060;28;20047;-78
2023/01/28 09:10:32;;;;;;;8.75;7.00;;;;;;;0.84;100.00;103119.13;4951818;28;20043;-78
2023/01/28 09:13:05;;;;;;;7.60;6.90;;;;;;;0.91;100.00;103116.22;4935038;28;20047;-78
2023/01/28 09:15:34;;;;;;;11.15;7.43;;;;;;;0.99;100.00;103115.94;4948467;28;20043;-77
2023/01/28 09:18:05;;;;;;;8.77;6.97;;;;;;;1.04;100.00;103120.69;4941383;28;20536;-78
2023/01/28 09:20:33;;;;;;;8.90;7.00;;;;;;;1.14;100.00;103124.91;4936180;28;20062;-77
2023/01/28 09:23:01;;;;;;;7.55;6.70;;;;;;;1.24;100.00;103135.22;4942977;28;20054;-77
2023/01/28 09:25:29;;;;;;;6.32;5.72;;;;;;;1.36;100.00;103133.59;4945506;28;20058;-78
2023/01/28 09:27:57;;;;;;;6.20;5.55;;;;;;;1.48;100.00;103131.03;4902575;28;21450;-77
2023/01/28 09:30:25;;;;;;;6.38;5.78;;;;;;;1.62;100.00;103123.38;4919719;28;20051;-79
2023/01/28 09:32:54;;;;;;;7.20;6.50;;;;;;;1.72;100.00;103115.47;4935162;28;20042;-78
2023/01/28 09:35:21;;;;;;;6.60;5.95;;;;;;;1.80;100.00;103106.56;4950496;28;20039;-79
2023/01/28 09:37:50;;;;;;;8.57;5.28;;;;;;;1.88;100.00;103109.75;4926055;28;20053;-78
2023/01/28 09:40:36;;;;;;;7.47;5.63;;;;;;;1.98;100.00;103113.94;4933996;28;20504;-78
2023/01/28 09:43:26;;;;;;;6.00;5.43;;;;;;;2.06;100.00;103125.78;4935558;29;20059;-77
2023/01/28 09:45:59;;;;;;;5.47;4.90;;;;;;;2.11;100.00;103119.25;4911924;28;20154;-78
2023/01/28 09:48:57;;;;;;;6.63;5.80;;;;;;;2.09;100.00;103126.03;4943743;28;20436;-78
2023/01/28 09:51:30;;;;;;;6.25;5.65;;;;;;;2.07;100.00;103125.91;4938646;28;20059;-78
2023/01/28 09:54:05;;;;;;;6.75;5.13;;;;;;;2.04;100.00;103124.78;4959902;28;20047;-78
2023/01/28 09:56:42;;;;;;;5.47;5.00;;;;;;;2.03;100.00;103120.38;4958363;28;20050;-78
2023/01/28 09:59:17;;;;;;;5.57;5.07;;;;;;;2.02;100.00;103127.25;4922095;28;20070;-78
2023/01/28 10:02:01;;;;;;;5.22;4.72;;;;;;;2.05;100.00;103118.81;4960888;28;20051;-78
2023/01/28 10:05:04;;;;;;;5.93;5.32;;;;;;;2.08;100.00;103116.41;4965012;28;20054;-79
2023/01/28 10:07:43;;;;;;;5.55;5.05;;;;;;;2.08;100.00;103108.59;4955460;28;20043;-79
2023/01/28 10:10:20;;;;;;;5.65;5.05;;;;;;;2.10;100.00;103118.34;4950010;28;20043;-78
2023/01/28 10:13:23;;;;;;;5.78;5.28;;;;;;;2.09;100.00;103116.53;4945702;28;20043;-78
2023/01/28 10:16:04;;;;;;;6.32;5.72;;;;;;;2.08;100.00;103106.00;4917188;28;20047;-78
2023/01/28 10:18:47;;;;;;;6.47;4.80;;;;;;;2.08;100.00;103082.59;4931828;28;20058;-79
2023/01/28 10:21:24;;;;;;;11.93;8.85;;;;;;;2.10;100.00;103070.66;4933515;28;20421;-77
2023/01/28 10:23:59;;;;;;;17.30;7.18;;;;;;;2.18;100.00;103053.88;4948352;28;20061;-79
2023/01/28 10:26:33;;;;;;;6.88;6.18;;;;;;;2.28;100.00;103050.25;4938445;28;20059;-79
2023/01/28 10:29:25;;;;;;;5.57;5.07;;;;;;;2.49;100.00;103053.47;4931927;29;20051;-79
2023/01/28 10:32:04;;;;;;;6.30;5.70;;;;;;;2.63;100.00;103050.19;4908483;29;20051;-78
2023/01/28 10:34:32;;;;;;;6.13;5.63;;;;;;;2.69;100.00;103034.97;4946446;28;20062;-78
2023/01/28 10:37:00;;;;;;;5.25;4.75;;;;;;;2.71;100.00;103032.50;4940063;28;20062;-79
2023/01/28 10:39:28;;;;;;;7.85;5.32;;;;;;;2.72;100.00;103032.59;4945756;28;20047;-78
2023/01/28 10:41:56;;;;;;;5.38;4.82;;;;;;;2.74;100.00;103024.88;4941324;28;20554;-79
2023/01/28 10:44:37;;;;;;;5.63;5.10;;;;;;;2.82;100.00;103028.94;4968617;28;20050;-78
2023/01/28 10:47:13;;;;;;;5.45;4.93;;;;;;;2.89;100.00;103025.97;4895473;29;20055;-78
2023/01/28 10:49:46;;;;;;;7.05;5.03;;;;;;;2.94;100.00;103018.47;4944543;28;20055;-78
2023/01/28 10:52:15;;;;;;;4.88;4.40;;;;;;;2.98;100.00;103012.66;4931445;28;20050;-78
2023/01/28 10:54:43;;;;;;;4.73;4.23;;;;;;;3.03;100.00;103029.53;4955816;28;20420;-77
2023/01/28 10:57:17;;;;;;;5.97;4.78;;;;;;;3.09;100.00;103042.94;4909063;28;20678;-78
2023/01/28 10:59:45;;;;;;;5.32;4.82;;;;;;;3.14;100.00;103032.88;4958679;28;20047;-78
2023/01/28 11:02:27;;;;;;;5.50;4.97;;;;;;;3.21;100.00;103031.56;4920737;28;20050;-80
2023/01/28 11:05:27;;;;;;;5.28;4.65;;;;;;;3.25;100.00;103039.72;4928303;29;20055;-78
2023/01/28 11:08:15;;;;;;;4.88;4.30;;;;;;;3.28;100.00;103029.47;4927498;28;20395;-78
2023/01/28 11:10:43;;;;;;;5.53;4.60;;;;;;;3.33;100.00;103035.03;4928423;28;20054;-78
2023/01/28 11:13:22;;;;;;;5.75;4.60;;;;;;;3.37;100.00;103038.75;4934669;28;20070;-78
2023/01/28 11:15:52;;;;;;;5.53;4.95;;;;;;;3.40;100.00;103037.22;4934272;28;20047;-78
2023/01/28 11:18:24;;;;;;;7.97;4.88;;;;;;;3.44;100.00;103048.75;4912719;29;20039;-78
2023/01/28 11:20:58;;;;;;;5.60;5.10;;;;;;;3.45;100.00;103041.03;4938151;28;20058;-78
2023/01/28 11:23:33;;;;;;;5.05;4.55;;;;;;;3.48;100.00;103037.75;4945152;28;20046;-78
2023/01/28 11:26:20;;;;;;;4.88;4.47;;;;;;;3.49;100.00;103045.66;4934020;29;20489;-78
2023/01/28 11:28:48;;;;;;;6.38;5.13;;;;;;;3.54;100.00;103052.91;4953723;28;20051;-78
2023/01/28 11:43:44;;;;;;;9.02;4.97;;;;;;;3.76;100.00;103036.97;4901824;28;20119;-77
2023/01/28 11:46:42;;;;;;;5.75;5.15;;;;;;;3.80;100.00;103024.25;4929742;29;20082;-78
2023/01/28 11:49:28;;;;;;;7.32;4.93;;;;;;;3.81;100.00;103013.00;4936277;28;20066;-78
2023/01/28 11:52:35;;;;;;;9.70;5.28;;;;;;;3.84;100.00;103018.44;4955994;28;20551;-78
2023/01/28 11:55:58;;;;;;;5.18;4.70;;;;;;;3.89;100.00;103004.00;4908196;28;20062;-78
2023/01/28 11:58:34;;;;;;;5.45;4.95;;;;;;;3.90;100.00;102997.97;4885376;29;20066;-79
2023/01/28 12:01:14;;;;;;;5.32;4.82;;;;;;;3.87;100.00;103005.56;4927701;28;20054;-78
2023/01/28 12:03:47;;;;;;;7.00;5.10;;;;;;;3.85;100.00;103014.09;4938418;28;20059;-78
2023/01/28 12:06:21;;;;;;;5.38;4.85;;;;;;;3.82;100.00;103004.38;4942237;29;20047;-79
2023/01/28 12:09:29;;;;;;;5.10;4.60;;;;;;;3.74;100.00;103000.34;4927097;29;20500;-78
2023/01/28 12:12:18;;;;;;;4.90;4.50;;;;;;;3.70;100.00;102986.25;4906617;28;20063;-82
2023/01/28 12:15:07;;;;;;;5.70;4.93;;;;;;;3.73;100.00;102982.91;4933902;28;20046;-77
2023/01/28 12:17:58;;;;;;;5.82;5.22;;;;;;;3.83;100.00;102984.41;4936919;28;20054;-78
2023/01/28 12:20:32;;;;;;;5.30;4.80;;;;;;;3.99;100.00;102978.47;4954887;28;20066;-78
2023/01/28 12:23:14;;;;;;;5.43;4.43;;;;;;;4.02;100.00;102976.97;4946163;29;20043;-77
2023/01/28 12:26:17;;;;;;;4.68;4.25;;;;;;;4.04;100.00;102971.84;4931973;28;20051;-77
2023/01/28 12:29:15;;;;;;;6.57;4.68;;;;;;;4.07;100.00;102962.50;4905803;28;20051;-77
2023/01/28 12:31:50;;;;;;;7.47;4.82;;;;;;;4.09;100.00;102954.78;4931665;28;20050;-76
2023/01/28 12:34:17;;;;;;;6.05;4.90;;;;;;;4.12;100.00;102960.22;4961520;28;20063;-78
2023/01/28 12:37:03;;;;;;;6.07;4.55;;;;;;;4.12;100.00;102973.25;4932947;28;20055;-78
2023/01/28 12:39:49;;;;;;;7.32;4.88;;;;;;;4.13;100.00;102967.22;4944952;29;20073;-77